Arbor Vitae, Wisconsin
Current Conditions -  °F | °C
As of 7:35 PM on Wednesday 22 Oct 2014 (Local Time) from KARV Reporting Station
Clear Clear  
Wind Chill: 41°   Ceiling: Unl
Heat Index: 45°   Visibility: 10mi
Dew Point: 30°   Wind: 6mph
Humidity: 56%   Direction: 150°SSE
Pressure: 30.16"   Gusts: NA
Location:  45.9553°N, 89.6779°W
Report Text: KARV 230035Z AUTO 15005KT 10SM CLR 07/M01 A3016 RMK AO2 T00701012
Loading
Personal Weather Stations






























Interactive Weather Map New forecast layout! Learn more

10-Day Weather Forecast

Advertisements
Track Severe Weather on mobile